Opa-locka Executive Airport
KOPF : now visible

Airfield :











YOU CAN JOIN US ON...

 
LOGIN :

Register | Disclaimer

   EN    FR    IT 

 









Legend :    VFR   Marginal VFR   IFR   Intensive IFR   Very Intensive IFR
Visi :
Ceiling :
>= 8 km
>= 3000ft
5 to 8 km
1000 to 3000 ft
1500m to 5 km
500 to 1000 ft
800 to 1500m
200 to 500 ft
< 800m
< 200 ft
Symbols :   Thunderstorms  Fog  Heavy snow  Heavy precipitations  Wind > 20 kt






- Airport Elevation : 8 ft


KOPF - Opa-locka Executive

CURRENT METAR :
  • 150653Z AUTO 33004KT 10SM CLR 17/14 A3002 RMK AO2 SLP166 T01720144

EXPIRED METARs :
  • 150553Z AUTO 34007KT 10SM CLR 18/14 A3001 RMK AO2 SLP162 T01780144 10239 20178 50004
  • 150453Z AUTO 32007KT 10SM CLR 19/14 A3002 RMK AO2 SLP165 T01890144 403060189

TAF KOPF
Valid from the 15 at 06:00 until the 16 at 06:00 UTC


150535Z 1506/1606 32007KT P6SM SKC
FM151400 07008KT P6SM FEW040
FM151800 10010KT P6SM FEW030 FEW250



MET'MAP, your aeronautical weather chart ! - Copyright ORBIFLY December 2007 - Disclaimer

ORBIFLY MET'MAP TEAM :

Programming & Development : Alexandra Zaïnal
Concept & original design : Baudouin d'Aumeries
Assistance for programming : Marc-Olivier Méhu
Technical & hardware support : Manuel Goepfert

Contact : metmap@orbifly.com




SOURCES & CREDITS :

   NOAA       Earth
Advisory